LiveATC.Net - Listen to live air traffic control over the Internet!


ICAO: LPPD  IATA: PDL   Airport: Joao Paulo II Airport
City: Ponta Delgada
Country: Portugal   Continent: Europe
LPPD METAR Weather: LPPD 140700Z 35002KT 9999 FEW020 BKN048 18/14 Q1015
LPPD ADS-B Flight Tracking  (ADSBExchange)
LPPD Flight Activity (FlightAware)
LPPD Webcam:  (Airport Webcams) 

LPPD Approach
Feed Status: UP   Listeners: 0
Listen in your browser - HTML5 player (in browser, HTML5)
Click here to listen with your own player (launches your MP3 player)
Archive Access: LPPD Approach
FacilityFrequency
Ponta Delgada Approach119.400

NOTICE

Unauthorized use prohibited. See LiveATC.net Terms of Service


Airport/ARTCC Code
Frequency Search
(e.g., 124.400, 128.75)
Site-wide search
 


Browse Feeds
Top 50 Feeds
HF Oceanic Feeds
Coverage Map
Bad Weather Areas

LiveATC FAQ

Increase Coverage

Contact LiveATC.net
Press Inquiries

LiveATC on iPhone
LiveATC on Android

LiveATC Mobile
(Mobile browser)

ATC Audio Archives
Interesting Recordings

LiveATC Forums


Home Page
About LiveATC.net


Terms of Use
Privacy Policy

AIRMETs/SIGMETs

FAA Airport Status
NAS Status
Arrival Demand


Server Software By:
Icecast.org
Liquidsoap